Decoded Metar for DTTB (BIZERTE in TUNISIA) (IATA:N/A) | Meteo·Mobile Aviation Weather
aviador You're here:

DTTB Decoded Metar

BIZERTE in TUNISIA
Report Time2018-09-25 14:00:00
UTC Time2018-09-25 14:39:13
Flight Rules vfr VFR
Wind290° at 12 kt
W.Decomp.*RWY 29: 12.0 kt HW 0.2 kt LCW
RWY 26: 10.5 kt HW 5.8 kt RCW
W.Rank290° ranks 2
Current wind is above 290° avg. (11.5)
Visibility9999 m
Phenomena:N/A
Clouds:Few 020 Hf
Expected CloudBase > 3,600 ft AGL from Temp-Dew spread
CeilingNone
Temp27°C (ISA +12)
Dew Point18°C (58% RH)
Heat Index27.9°C
AAT25.5°C
QNH1020 hPa
Density Alt1,434 ft
Elevation10 ft
Report Wrong Elevation
Raw Report
DTTB 251400Z 29012KT 260V320 9999 FEW020 27/18 Q1020=

Extra information for DTTB:More info

Metar Taf Metar & Taf Last 4 Metars F.Rules Stats Wind Profile Meteogram Temp Stats Airport Information Weather charts Add Link Nearby VenuesMetar ALERT Operation Metar Decoded Social comments